Time;durP1;ratioP1;P1;durP2;ratioP2;P2;SDS_P1;SDS_P2;PMS_P1;PMS_P2;Temp;Humidity;BMP_temperature;BMP_pressure;BME280_temperature;BME280_humidity;BME280_pressure;Samples;Min_cycle;Max_cycle;Signal;HPM_P1;HPM_P2
2023/05/11 00:02:00;;;;;;;0.45;0.45;;;;;;;13.22;90.55;97178.06;5053506;28;20041;-69
2023/05/11 00:04:27;;;;;;;0.50;0.50;;;;;;;13.20;90.93;97169.44;5050906;28;20048;-70
2023/05/11 00:06:56;;;;;;;0.55;0.55;;;;;;;13.04;91.67;97161.94;5040290;28;20042;-70
2023/05/11 00:09:24;;;;;;;0.60;0.60;;;;;;;12.97;91.64;97169.22;5052800;28;20103;-69
2023/05/11 00:11:51;;;;;;;0.50;0.50;;;;;;;12.95;92.02;97157.91;5049820;28;20033;-69
2023/05/11 00:14:19;;;;;;;0.55;0.55;;;;;;;12.94;92.37;97156.28;5049638;28;20492;-69
2023/05/11 00:16:47;;;;;;;0.50;0.50;;;;;;;13.07;91.27;97156.16;5048661;28;20064;-69
2023/05/11 00:19:14;;;;;;;0.40;0.40;;;;;;;13.11;91.15;97160.00;5050855;28;20519;-70
2023/05/11 00:21:42;;;;;;;0.57;0.57;;;;;;;13.11;91.32;97151.97;5053622;28;20053;-70
2023/05/11 00:24:11;;;;;;;0.60;0.60;;;;;;;13.00;91.54;97155.38;5049698;28;20045;-70
2023/05/11 00:26:38;;;;;;;0.55;0.55;;;;;;;12.98;91.00;97150.22;5042108;28;20049;-70
2023/05/11 00:29:06;;;;;;;0.70;0.70;;;;;;;13.00;90.57;97147.34;5049450;28;20044;-70
2023/05/11 00:31:33;;;;;;;0.50;0.50;;;;;;;13.05;90.43;97152.88;5045661;28;20045;-70
2023/05/11 00:34:01;;;;;;;0.50;0.50;;;;;;;12.99;90.33;97143.84;5052967;28;20496;-70
2023/05/11 00:36:28;;;;;;;0.43;0.43;;;;;;;12.94;90.42;97145.56;5037831;28;20041;-70
2023/05/11 00:38:56;;;;;;;0.57;0.57;;;;;;;12.95;90.30;97139.16;5050470;28;20036;-70
2023/05/11 00:41:25;;;;;;;0.55;0.55;;;;;;;13.00;90.21;97142.81;5050435;28;20159;-70
2023/05/11 00:43:53;;;;;;;0.63;0.63;;;;;;;13.00;90.18;97139.31;5046788;28;20075;-70
2023/05/11 00:46:21;;;;;;;0.77;0.77;;;;;;;12.98;90.23;97144.09;5047923;28;20040;-70
2023/05/11 00:48:49;;;;;;;0.50;0.50;;;;;;;13.01;90.33;97141.75;5048235;28;20049;-70
2023/05/11 00:51:16;;;;;;;0.70;0.70;;;;;;;13.00;90.10;97139.31;5050791;28;20057;-70
2023/05/11 00:53:44;;;;;;;0.80;0.80;;;;;;;13.02;89.72;97143.41;5047226;28;20040;-70
2023/05/11 00:56:11;;;;;;;0.50;0.50;;;;;;;12.87;90.17;97143.75;5047577;28;20041;-70
2023/05/11 00:58:40;;;;;;;0.63;0.63;;;;;;;12.89;90.11;97143.53;5043513;28;20050;-70
2023/05/11 01:01:09;;;;;;;0.60;0.60;;;;;;;12.90;90.24;97144.34;5051318;28;20119;-70
2023/05/11 01:03:37;;;;;;;0.52;0.52;;;;;;;12.86;90.76;97141.31;5051784;28;20045;-70
2023/05/11 01:06:08;;;;;;;0.50;0.50;;;;;;;12.94;90.71;97143.69;5050799;28;20037;-70
2023/05/11 01:08:41;;;;;;;0.63;0.63;;;;;;;12.98;90.13;97136.03;5040520;28;20051;-70
2023/05/11 01:11:14;;;;;;;0.68;0.68;;;;;;;12.94;90.11;97141.03;5045260;28;20116;-69
2023/05/11 01:13:46;;;;;;;0.47;0.47;;;;;;;12.87;90.59;97141.06;5052072;28;20670;-70
2023/05/11 01:16:18;;;;;;;0.57;0.57;;;;;;;12.89;90.68;97138.16;5066284;28;20045;-70
2023/05/11 01:18:52;;;;;;;0.57;0.57;;;;;;;12.97;90.54;97134.41;5049236;28;20053;-70
2023/05/11 01:21:20;;;;;;;0.50;0.50;;;;;;;12.98;90.77;97134.16;5064669;28;20132;-70
2023/05/11 01:24:04;;;;;;;0.50;0.50;;;;;;;13.02;90.31;97137.22;5047314;28;20811;-69
2023/05/11 01:26:37;;;;;;;0.40;0.40;;;;;;;12.97;89.85;97137.09;5048606;28;20055;-69
2023/05/11 01:29:22;;;;;;;0.20;0.20;;;;;;;12.87;90.34;97140.28;5051236;28;20407;-70
2023/05/11 01:31:55;;;;;;;0.50;0.50;;;;;;;12.93;90.23;97134.03;5045534;28;20052;-71
2023/05/11 01:34:25;;;;;;;0.60;0.60;;;;;;;12.95;90.28;97131.13;5046322;28;20045;-70
2023/05/11 01:36:55;;;;;;;0.40;0.40;;;;;;;12.90;90.19;97134.44;5043173;28;20550;-71
2023/05/11 01:39:29;;;;;;;0.30;0.30;;;;;;;12.95;89.94;97131.13;5064210;28;20049;-70
2023/05/11 01:41:58;;;;;;;0.57;0.57;;;;;;;12.92;89.22;97136.91;5059047;28;20049;-70
2023/05/11 01:44:30;;;;;;;0.60;0.60;;;;;;;12.85;89.19;97137.00;5048069;28;20504;-70
2023/05/11 01:47:00;;;;;;;0.47;0.47;;;;;;;12.80;88.88;97139.50;5041383;28;20052;-70
2023/05/11 01:49:29;;;;;;;0.50;0.50;;;;;;;12.80;88.58;97143.00;5040625;28;20091;-70
2023/05/11 01:51:57;;;;;;;0.40;0.40;;;;;;;12.77;88.81;97146.09;5045828;28;20045;-70
2023/05/11 01:54:25;;;;;;;0.20;0.20;;;;;;;12.74;88.52;97146.56;5046028;28;20406;-70
2023/05/11 01:56:53;;;;;;;0.55;0.55;;;;;;;12.70;88.55;97141.84;5063069;28;20045;-70
2023/05/11 01:59:21;;;;;;;0.73;0.73;;;;;;;12.61;88.59;97138.63;5050687;28;20057;-69
2023/05/11 02:01:48;;;;;;;0.40;0.40;;;;;;;12.61;88.68;97141.31;5044074;28;20087;-69
2023/05/11 02:04:18;;;;;;;0.55;0.55;;;;;;;12.45;89.43;97142.69;5048193;28;20044;-70
2023/05/11 02:06:46;;;;;;;0.88;0.88;;;;;;;12.47;89.64;97150.47;5053846;28;20092;-70
2023/05/11 02:09:16;;;;;;;0.65;0.65;;;;;;;12.44;89.87;97146.38;5065164;28;20407;-70
2023/05/11 02:11:45;;;;;;;0.70;0.70;;;;;;;12.45;89.80;97141.84;5039253;28;20041;-70
2023/05/11 02:14:17;;;;;;;0.60;0.60;;;;;;;12.43;89.70;97143.94;5043866;28;20041;-70
2023/05/11 02:16:46;;;;;;;0.50;0.50;;;;;;;12.48;89.76;97138.72;5042561;28;20090;-70
2023/05/11 02:19:14;;;;;;;0.50;0.50;;;;;;;12.47;89.75;97143.25;5066093;28;20041;-70
2023/05/11 02:21:43;;;;;;;0.50;0.50;;;;;;;12.22;90.59;97141.59;5042720;28;20554;-70
2023/05/11 02:24:11;;;;;;;0.63;0.63;;;;;;;12.25;91.19;97141.97;5066232;28;20053;-69
2023/05/11 02:26:39;;;;;;;0.77;0.77;;;;;;;12.05;91.34;97141.28;5049833;28;20037;-69
2023/05/11 02:29:07;;;;;;;0.60;0.60;;;;;;;12.17;90.78;97144.09;5044273;28;20081;-69
2023/05/11 02:31:36;;;;;;;0.60;0.60;;;;;;;12.24;90.20;97144.88;5044275;28;20052;-69
2023/05/11 02:34:09;;;;;;;0.68;0.68;;;;;;;12.34;89.87;97143.38;5058758;28;20037;-69
2023/05/11 02:36:37;;;;;;;0.60;0.60;;;;;;;12.26;90.11;97140.94;5035514;28;20052;-70
2023/05/11 02:39:11;;;;;;;0.50;0.50;;;;;;;12.35;89.99;97145.03;5065148;28;20048;-70
2023/05/11 02:41:43;;;;;;;0.45;0.45;;;;;;;12.28;90.21;97136.19;5063297;28;20068;-69
2023/05/11 02:44:14;;;;;;;0.47;0.47;;;;;;;12.39;89.75;97142.72;5044287;28;20056;-69
2023/05/11 02:46:42;;;;;;;0.60;0.60;;;;;;;12.42;89.50;97140.44;5050981;28;20373;-70
2023/05/11 02:49:13;;;;;;;0.60;0.60;;;;;;;12.27;89.88;97139.91;5041230;28;20042;-70
2023/05/11 02:51:43;;;;;;;0.50;0.50;;;;;;;12.39;89.37;97143.53;5045821;28;20036;-69
2023/05/11 02:54:12;;;;;;;0.50;0.50;;;;;;;12.21;89.74;97140.78;5037210;28;20048;-69
2023/05/11 02:56:45;;;;;;;0.38;0.38;;;;;;;11.98;91.06;97137.84;5047978;28;20037;-70
2023/05/11 02:59:13;;;;;;;0.60;0.60;;;;;;;12.18;90.49;97135.03;5049004;28;20041;-69
2023/05/11 03:01:41;;;;;;;0.50;0.50;;;;;;;12.41;89.39;97137.97;5039378;28;20073;-70
2023/05/11 03:04:10;;;;;;;0.57;0.57;;;;;;;12.16;90.71;97142.44;5069495;28;20103;-68
2023/05/11 03:06:38;;;;;;;0.60;0.60;;;;;;;12.21;89.62;97132.75;5045225;28;20087;-71
2023/05/11 03:09:07;;;;;;;0.50;0.50;;;;;;;12.16;90.36;97132.56;5054678;28;20151;-69
2023/05/11 03:11:42;;;;;;;0.60;0.60;;;;;;;12.07;91.07;97139.22;5062960;28;20068;-68
2023/05/11 03:14:10;;;;;;;0.40;0.40;;;;;;;11.83;92.15;97130.13;5065597;28;20048;-69
2023/05/11 03:16:38;;;;;;;0.70;0.70;;;;;;;11.98;91.34;97141.31;5063939;28;20041;-69
2023/05/11 03:19:07;;;;;;;0.47;0.47;;;;;;;11.81;92.53;97139.38;5069995;28;20042;-69
2023/05/11 03:21:37;;;;;;;0.05;0.05;;;;;;;11.98;91.72;97133.31;5069284;28;20416;-69
2023/05/11 03:24:06;;;;;;;0.52;0.52;;;;;;;12.14;90.70;97126.63;5053316;28;20041;-69
2023/05/11 03:26:34;;;;;;;0.50;0.50;;;;;;;12.22;90.59;97128.22;5038072;28;20044;-69
2023/05/11 03:29:04;;;;;;;0.38;0.38;;;;;;;12.28;90.68;97138.06;5049301;28;20041;-69
2023/05/11 03:31:31;;;;;;;0.52;0.52;;;;;;;12.36;90.32;97132.44;5045026;28;20049;-69
2023/05/11 03:34:00;;;;;;;0.50;0.50;;;;;;;12.35;89.92;97136.16;5050150;28;20534;-68
2023/05/11 03:36:31;;;;;;;0.10;0.10;;;;;;;12.34;90.06;97124.66;5034734;28;20480;-68
2023/05/11 03:38:59;;;;;;;0.52;0.52;;;;;;;12.46;89.87;97127.41;5059849;28;20041;-68
2023/05/11 03:41:32;;;;;;;0.40;0.40;;;;;;;12.25;90.14;97130.47;5046235;28;20055;-69
2023/05/11 03:44:00;;;;;;;0.50;0.50;;;;;;;12.31;90.06;97134.94;5061015;28;20132;-69
2023/05/11 03:46:30;;;;;;;0.82;0.82;;;;;;;12.21;90.64;97126.59;5044142;28;20520;-69
2023/05/11 03:48:59;;;;;;;0.43;0.43;;;;;;;12.19;90.29;97126.78;5061429;28;20555;-69
2023/05/11 03:51:30;;;;;;;0.60;0.60;;;;;;;12.29;90.03;97132.50;5051825;28;20044;-69
2023/05/11 03:53:59;;;;;;;0.85;0.85;;;;;;;12.28;89.91;97135.38;5046813;28;20059;-69
2023/05/11 03:56:27;;;;;;;0.50;0.50;;;;;;;12.21;89.87;97129.25;5048397;28;20044;-69
2023/05/11 03:58:54;;;;;;;0.60;0.60;;;;;;;12.23;90.11;97135.22;5041830;28;20041;-69
2023/05/11 04:01:22;;;;;;;0.45;0.45;;;;;;;12.15;90.17;97132.81;5044581;28;20045;-69
2023/05/11 04:03:53;;;;;;;0.75;0.75;;;;;;;12.17;90.34;97125.38;5052688;28;20048;-69
2023/05/11 04:06:22;;;;;;;0.30;0.30;;;;;;;12.16;90.37;97132.56;5047419;28;20041;-69
2023/05/11 04:09:00;;;;;;;0.52;0.52;;;;;;;12.24;89.89;97126.16;5045770;28;20048;-69
2023/05/11 04:11:29;;;;;;;0.60;0.60;;;;;;;12.08;90.48;97128.31;5039743;28;20045;-69
2023/05/11 04:13:56;;;;;;;0.43;0.43;;;;;;;12.01;91.02;97118.69;5040080;28;20065;-69
2023/05/11 04:16:24;;;;;;;0.60;0.60;;;;;;;11.98;91.25;97124.47;5061212;28;20052;-68
2023/05/11 04:18:53;;;;;;;0.60;0.60;;;;;;;12.10;90.46;97126.25;5049294;28;20040;-71
2023/05/11 04:21:21;;;;;;;0.60;0.60;;;;;;;11.93;91.88;97122.44;5049035;28;20057;-70
2023/05/11 04:23:48;;;;;;;0.60;0.60;;;;;;;11.93;91.71;97125.13;5046861;28;20049;-70
2023/05/11 04:26:17;;;;;;;0.95;0.95;;;;;;;12.01;91.20;97126.72;5041734;28;20042;-71
2023/05/11 04:28:45;;;;;;;0.55;0.55;;;;;;;12.03;91.08;97128.16;5050579;28;20499;-69
2023/05/11 04:31:13;;;;;;;0.60;0.60;;;;;;;12.03;91.13;97128.16;5051960;28;20082;-70
2023/05/11 04:33:41;;;;;;;0.60;0.60;;;;;;;11.99;90.62;97124.25;5044247;28;20562;-70
2023/05/11 04:36:11;;;;;;;0.50;0.50;;;;;;;11.99;90.73;97126.94;5043460;28;20054;-70
2023/05/11 04:38:39;;;;;;;0.85;0.85;;;;;;;12.00;90.86;97123.22;5040820;28;20044;-71
2023/05/11 04:41:08;;;;;;;0.60;0.60;;;;;;;12.01;90.95;97124.03;5065665;28;20043;-71
2023/05/11 04:43:37;;;;;;;1.02;1.02;;;;;;;11.93;91.25;97127.78;5043486;28;20041;-69
2023/05/11 04:46:07;;;;;;;0.57;0.57;;;;;;;11.84;92.10;97131.72;5046458;28;20061;-70
2023/05/11 04:48:35;;;;;;;0.60;0.60;;;;;;;11.84;91.93;97126.38;5046804;28;20037;-70
2023/05/11 04:51:04;;;;;;;0.60;0.60;;;;;;;11.85;92.25;97124.53;5060417;28;20044;-68
2023/05/11 04:53:35;;;;;;;0.55;0.55;;;;;;;12.13;90.48;97122.31;5059751;28;20045;-68
2023/05/11 04:56:03;;;;;;;0.55;0.55;;;;;;;12.20;90.18;97128.44;5062375;28;20052;-68
2023/05/11 04:58:30;;;;;;;0.45;0.45;;;;;;;12.11;90.95;97127.06;5043931;28;20042;-68
2023/05/11 05:00:58;;;;;;;0.60;0.60;;;;;;;11.96;92.53;97132.69;5047718;28;20038;-68
2023/05/11 05:03:26;;;;;;;0.50;0.50;;;;;;;12.03;92.19;97133.50;5036258;28;20053;-68
2023/05/11 05:05:54;;;;;;;0.55;0.55;;;;;;;12.03;92.21;97138.84;5059590;28;20041;-69
2023/05/11 05:08:22;;;;;;;0.50;0.50;;;;;;;12.09;92.41;97132.63;5042994;28;20053;-69
2023/05/11 05:10:51;;;;;;;0.50;0.50;;;;;;;12.12;92.11;97134.88;5046019;28;20065;-69
2023/05/11 05:13:18;;;;;;;0.68;0.68;;;;;;;12.00;92.47;97136.59;5047351;28;20048;-70
2023/05/11 05:15:46;;;;;;;0.45;0.45;;;;;;;11.98;92.84;97141.31;5038384;28;20065;-70
2023/05/11 05:18:14;;;;;;;0.55;0.55;;;;;;;12.02;92.52;97136.38;5038596;28;20038;-70
2023/05/11 05:20:44;;;;;;;0.70;0.70;;;;;;;11.93;92.43;97137.66;5039566;28;20496;-69
2023/05/11 05:23:11;;;;;;;0.60;0.60;;;;;;;11.95;92.28;97131.06;5045605;28;20095;-69
2023/05/11 05:25:39;;;;;;;0.28;0.22;;;;;;;11.93;92.56;97135.00;5053425;28;20421;-70
2023/05/11 05:28:08;;;;;;;0.70;0.70;;;;;;;11.90;93.22;97148.78;5040255;28;20481;-69
2023/05/11 05:30:36;;;;;;;0.50;0.50;;;;;;;11.90;93.04;97144.25;5066812;28;20052;-70
2023/05/11 05:33:04;;;;;;;0.45;0.45;;;;;;;11.97;93.00;97146.88;5044468;28;20137;-70
2023/05/11 05:35:33;;;;;;;0.52;0.52;;;;;;;12.02;93.27;97150.56;5042457;28;20056;-70
2023/05/11 05:38:01;;;;;;;0.20;0.20;;;;;;;12.08;93.40;97151.56;5044340;28;20474;-69
2023/05/11 05:40:28;;;;;;;0.45;0.45;;;;;;;12.05;92.55;97151.97;5046817;28;20048;-70
2023/05/11 05:42:56;;;;;;;0.45;0.45;;;;;;;12.12;92.54;97150.09;5062476;28;20139;-72
2023/05/11 05:45:26;;;;;;;0.70;0.70;;;;;;;12.08;92.48;97144.34;5045317;28;20048;-70
2023/05/11 05:47:54;;;;;;;0.57;0.57;;;;;;;12.08;92.78;97154.22;5052559;28;20113;-70
2023/05/11 05:50:22;;;;;;;0.70;0.70;;;;;;;12.02;92.54;97147.91;5043279;28;20508;-70
2023/05/11 05:52:49;;;;;;;0.55;0.55;;;;;;;12.06;92.73;97146.41;5035887;28;20370;-70
2023/05/11 05:55:19;;;;;;;0.50;0.50;;;;;;;12.08;92.78;97151.56;5042472;28;20125;-69
2023/05/11 05:57:48;;;;;;;0.63;0.63;;;;;;;12.10;92.74;97161.03;5045374;28;20067;-69
2023/05/11 06:00:16;;;;;;;0.52;0.52;;;;;;;12.12;92.95;97158.13;5047954;28;20033;-70
2023/05/11 06:02:52;;;;;;;0.50;0.50;;;;;;;12.16;93.26;97162.00;5048946;28;20053;-70
2023/05/11 06:05:25;;;;;;;0.68;0.68;;;;;;;12.11;92.92;97165.34;5041236;28;20642;-69
2023/05/11 06:07:52;;;;;;;0.75;0.75;;;;;;;12.10;93.36;97161.03;5049900;28;20060;-70
2023/05/11 06:10:36;;;;;;;0.60;0.60;;;;;;;12.09;92.99;97174.59;5067784;28;20040;-69
2023/05/11 06:13:04;;;;;;;0.60;0.60;;;;;;;12.06;93.56;97169.66;5053938;28;20124;-70
2023/05/11 06:15:32;;;;;;;0.52;0.52;;;;;;;12.05;93.61;97176.88;5054635;28;20057;-70
2023/05/11 06:18:09;;;;;;;0.70;0.70;;;;;;;12.03;93.63;97167.44;5061632;28;20041;-69
2023/05/11 06:20:39;;;;;;;;;;;;;;;12.02;93.65;97173.81;5061271;28;20614;-70
2023/05/11 06:23:07;;;;;;;0.17;0.17;;;;;;;12.02;93.71;97169.31;5040744;28;20348;-69
2023/05/11 06:25:39;;;;;;;0.50;0.50;;;;;;;11.96;93.90;97174.66;5038499;28;20045;-69
2023/05/11 06:28:07;;;;;;;0.50;0.50;;;;;;;11.95;93.93;97167.66;5039015;28;20057;-69
2023/05/11 06:30:36;;;;;;;0.10;0.10;;;;;;;12.05;93.41;97171.53;5061198;28;20476;-70
2023/05/11 06:33:06;;;;;;;0.43;0.43;;;;;;;12.10;93.11;97171.72;5056628;28;20036;-70
2023/05/11 06:35:37;;;;;;;0.50;0.50;;;;;;;12.09;93.33;97170.06;5033902;28;20048;-69
2023/05/11 06:38:07;;;;;;;0.75;0.75;;;;;;;12.15;93.55;97176.41;5056426;28;20045;-70
2023/05/11 06:40:36;;;;;;;0.52;0.52;;;;;;;12.20;93.58;97175.78;5051442;28;20045;-70
2023/05/11 06:43:03;;;;;;;0.50;0.50;;;;;;;12.18;93.10;97172.50;5060551;28;20048;-70
2023/05/11 06:45:51;;;;;;;0.70;0.70;;;;;;;12.22;93.20;97173.72;5038544;28;20125;-69
2023/05/11 06:48:22;;;;;;;0.88;0.88;;;;;;;12.25;93.03;97167.94;5058847;28;20045;-70
2023/05/11 06:50:51;;;;;;;0.52;0.43;;;;;;;12.24;92.69;97169.78;5041822;28;20044;-70
2023/05/11 06:53:18;;;;;;;0.73;0.73;;;;;;;12.24;92.69;97166.28;5039721;28;20040;-69
2023/05/11 06:55:46;;;;;;;0.52;0.52;;;;;;;12.29;92.94;97169.94;5036865;28;20056;-70
2023/05/11 06:58:14;;;;;;;0.50;0.50;;;;;;;12.29;93.18;97169.13;5061824;28;20055;-70
2023/05/11 07:00:41;;;;;;;0.43;0.43;;;;;;;12.31;93.45;97167.88;5038440;28;20095;-70
2023/05/11 07:03:09;;;;;;;0.60;0.60;;;;;;;12.42;93.13;97171.72;5049539;28;20041;-69
2023/05/11 07:05:37;;;;;;;0.50;0.50;;;;;;;12.45;93.40;97174.81;5038941;28;20046;-69
2023/05/11 07:08:06;;;;;;;0.50;0.50;;;;;;;12.47;93.31;97169.19;5036392;28;20044;-70
2023/05/11 07:10:34;;;;;;;0.63;0.63;;;;;;;12.52;92.99;97179.28;5045632;28;20064;-70
2023/05/11 07:13:02;;;;;;;0.55;0.55;;;;;;;12.52;92.68;97173.91;5037785;28;20075;-70
2023/05/11 07:15:29;;;;;;;0.57;0.57;;;;;;;12.56;92.48;97178.63;5035837;28;20098;-70
2023/05/11 07:17:57;;;;;;;0.60;0.60;;;;;;;12.62;92.50;97174.25;5038816;28;20041;-69
2023/05/11 07:20:24;;;;;;;0.60;0.60;;;;;;;12.72;91.72;97174.59;5037660;28;20045;-70
2023/05/11 07:22:56;;;;;;;0.52;0.52;;;;;;;12.71;91.04;97178.31;5043411;28;20119;-70
2023/05/11 07:25:25;;;;;;;0.60;0.60;;;;;;;12.72;91.21;97174.59;5033459;28;20037;-70
2023/05/11 07:27:52;;;;;;;0.82;0.82;;;;;;;12.73;92.03;97177.06;5040030;28;20077;-70
2023/05/11 07:30:20;;;;;;;0.20;0.20;;;;;;;12.75;91.01;97182.19;5049188;28;20448;-70
2023/05/11 07:32:48;;;;;;;0.63;0.63;;;;;;;12.70;91.07;97179.34;5042771;28;20033;-70
2023/05/11 07:35:16;;;;;;;0.65;0.65;;;;;;;12.71;91.10;97186.34;5032951;28;20295;-70
2023/05/11 07:37:43;;;;;;;0.50;0.50;;;;;;;12.73;92.04;97187.75;5043322;28;20048;-70
2023/05/11 07:40:11;;;;;;;0.50;0.50;;;;;;;12.81;91.00;97195.53;5042656;28;20128;-69
2023/05/11 07:42:40;;;;;;;0.50;0.50;;;;;;;12.83;90.76;97195.31;5036093;28;20048;-70
2023/05/11 07:45:09;;;;;;;0.73;0.73;;;;;;;12.91;90.13;97200.38;5039555;28;20385;-70
2023/05/11 07:47:36;;;;;;;0.65;0.65;;;;;;;12.95;90.46;97198.91;5037420;28;20099;-70
2023/05/11 07:50:05;;;;;;;0.68;0.68;;;;;;;13.00;89.33;97196.38;5041469;28;20561;-70
2023/05/11 07:52:33;;;;;;;0.57;0.57;;;;;;;13.05;88.56;97195.75;5046642;28;20045;-70
2023/05/11 07:55:00;;;;;;;0.50;0.50;;;;;;;13.08;88.75;97195.31;5048325;28;20037;-69
2023/05/11 07:57:28;;;;;;;0.35;0.35;;;;;;;13.11;88.76;97205.56;5044782;28;20041;-70
2023/05/11 07:59:57;;;;;;;0.65;0.65;;;;;;;13.15;87.59;97196.09;5041544;28;20748;-70
2023/05/11 08:02:24;;;;;;;0.55;0.55;;;;;;;13.12;87.53;97200.00;5046400;28;20675;-70
2023/05/11 08:04:52;;;;;;;0.55;0.55;;;;;;;13.15;87.35;97198.78;5041525;28;20453;-70
2023/05/11 08:07:20;;;;;;;0.55;0.55;;;;;;;13.13;87.52;97201.63;5043602;28;20124;-70
2023/05/11 08:09:47;;;;;;;0.45;0.45;;;;;;;13.27;87.96;97194.31;5052865;28;20037;-70
2023/05/11 08:12:15;;;;;;;0.60;0.60;;;;;;;13.35;86.96;97191.34;5039239;28;20037;-70
2023/05/11 08:14:43;;;;;;;0.52;0.52;;;;;;;13.49;87.03;97195.53;5046616;28;20092;-70
2023/05/11 08:17:14;;;;;;;0.77;0.77;;;;;;;13.67;86.37;97199.25;5044763;28;20046;-70
2023/05/11 08:19:41;;;;;;;0.28;0.28;;;;;;;13.78;85.68;97201.19;5034429;28;20443;-70
2023/05/11 08:22:09;;;;;;;0.10;0.10;;;;;;;13.75;84.00;97205.13;5047797;28;20669;-70
2023/05/11 08:24:37;;;;;;;0.50;0.50;;;;;;;13.76;83.98;97200.59;5048698;28;20500;-70
2023/05/11 08:27:04;;;;;;;0.45;0.45;;;;;;;13.71;84.72;97195.06;5047868;28;20044;-70
2023/05/11 08:29:36;;;;;;;0.43;0.43;;;;;;;13.81;85.23;97196.19;5052419;28;20068;-70
2023/05/11 08:32:08;;;;;;;0.50;0.50;;;;;;;13.78;84.38;97199.34;5039715;28;20041;-70
2023/05/11 08:34:37;;;;;;;0.60;0.60;;;;;;;13.83;84.98;97199.47;5044452;28;20048;-70
2023/05/11 08:37:05;;;;;;;0.57;0.57;;;;;;;13.95;83.80;97202.22;5049323;28;20408;-70
2023/05/11 08:39:33;;;;;;;0.45;0.45;;;;;;;14.07;83.75;97200.41;5046695;28;20056;-70
2023/05/11 08:42:06;;;;;;;0.55;0.55;;;;;;;14.19;82.60;97197.78;5044652;28;20084;-70
2023/05/11 08:44:36;;;;;;;0.45;0.45;;;;;;;14.15;82.41;97193.91;5042722;28;20037;-70
2023/05/11 08:47:05;;;;;;;0.50;0.50;;;;;;;14.23;81.99;97197.09;5042786;28;20038;-70
2023/05/11 08:49:52;;;;;;;0.50;0.50;;;;;;;14.28;82.47;97193.72;5044453;28;20511;-70
2023/05/11 08:52:20;;;;;;;0.55;0.55;;;;;;;14.29;81.82;97198.06;5042590;28;20044;-70
2023/05/11 08:54:47;;;;;;;0.40;0.40;;;;;;;14.37;82.05;97197.72;5044666;28;20036;-70
2023/05/11 08:57:16;;;;;;;0.20;0.20;;;;;;;14.37;81.70;97200.41;5046076;28;20419;-70
2023/05/11 08:59:44;;;;;;;0.75;0.75;;;;;;;14.35;81.72;97197.13;5044281;28;20053;-70
2023/05/11 09:02:19;;;;;;;0.80;0.80;;;;;;;14.40;80.96;97196.50;5044655;28;20041;-70
2023/05/11 09:04:47;;;;;;;0.60;0.60;;;;;;;14.42;81.67;97200.59;5044969;28;20041;-70
2023/05/11 09:07:17;;;;;;;0.80;0.80;;;;;;;14.33;81.80;97208.09;5044928;28;20510;-69
2023/05/11 09:09:46;;;;;;;0.50;0.50;;;;;;;14.41;81.26;97203.50;5045039;28;20068;-69
2023/05/11 09:12:13;;;;;;;0.50;0.50;;;;;;;14.45;82.07;97192.06;5043266;28;20037;-70
2023/05/11 09:14:41;;;;;;;0.10;0.10;;;;;;;14.54;81.75;97201.41;5042784;28;20381;-70
2023/05/11 09:17:09;;;;;;;0.60;0.60;;;;;;;14.68;82.54;97199.38;5042391;28;20037;-69
2023/05/11 09:19:37;;;;;;;0.40;0.40;;;;;;;14.65;81.92;97203.31;5041380;28;20079;-70
2023/05/11 09:22:06;;;;;;;0.60;0.60;;;;;;;14.68;81.71;97199.38;5044188;28;20029;-69
2023/05/11 09:24:35;;;;;;;0.40;0.40;;;;;;;14.70;82.06;97202.66;5038861;28;20115;-70
2023/05/11 09:27:07;;;;;;;0.50;0.50;;;;;;;14.68;82.55;97196.69;5046072;28;20045;-70
2023/05/11 09:29:35;;;;;;;0.60;0.60;;;;;;;14.68;82.13;97200.19;5045879;28;20056;-70
2023/05/11 09:32:03;;;;;;;0.45;0.45;;;;;;;14.71;81.73;97204.28;5042357;28;20042;-70
2023/05/11 09:34:31;;;;;;;0.50;0.50;;;;;;;14.64;79.95;97204.38;5046004;28;20049;-70
2023/05/11 09:36:58;;;;;;;0.55;0.55;;;;;;;14.75;80.14;97205.44;5038919;28;20052;-70
2023/05/11 09:39:29;;;;;;;0.10;0.10;;;;;;;14.84;79.77;97201.41;5040537;28;20559;-71
2023/05/11 09:42:13;;;;;;;0.55;0.55;;;;;;;14.96;79.40;97204.06;5040536;28;20091;-71
2023/05/11 09:44:41;;;;;;;0.32;0.32;;;;;;;15.03;79.25;97200.25;5036960;28;20038;-71
2023/05/11 09:47:13;;;;;;;0.40;0.40;;;;;;;15.13;80.02;97193.47;5035784;28;20049;-71
2023/05/11 09:49:42;;;;;;;0.38;0.38;;;;;;;15.22;79.78;97205.50;5046685;28;20056;-70
2023/05/11 09:52:10;;;;;;;0.60;0.60;;;;;;;15.20;78.79;97197.69;5040431;28;20043;-70
2023/05/11 09:54:45;;;;;;;0.45;0.45;;;;;;;15.27;79.21;97201.06;5045912;28;20091;-71
2023/05/11 09:57:24;;;;;;;0.40;0.40;;;;;;;15.36;78.70;97191.63;5038188;28;20052;-70
2023/05/11 09:59:52;;;;;;;0.43;0.43;;;;;;;15.43;78.11;97195.00;5044048;28;20048;-70
2023/05/11 10:02:22;;;;;;;0.55;0.55;;;;;;;15.40;77.99;97186.56;5036329;28;20493;-70
2023/05/11 10:04:50;;;;;;;0.10;0.10;;;;;;;15.42;77.34;97192.53;5037985;28;20408;-70
2023/05/11 10:07:28;;;;;;;0.40;0.40;;;;;;;15.39;77.35;97193.81;5038843;28;20096;-70
2023/05/11 10:09:58;;;;;;;0.45;0.45;;;;;;;15.47;78.34;97189.94;5048141;28;20159;-71
2023/05/11 10:12:29;;;;;;;0.40;0.40;;;;;;;15.51;77.59;97185.72;5042858;28;20500;-70
2023/05/11 10:15:01;;;;;;;0.45;0.45;;;;;;;15.50;76.96;97181.41;5043677;28;20671;-70
2023/05/11 10:17:30;;;;;;;0.85;0.85;;;;;;;15.47;77.58;97181.88;5041489;28;20073;-70
2023/05/11 10:19:58;;;;;;;0.45;0.45;;;;;;;15.44;77.18;97187.75;5042221;28;20064;-70
2023/05/11 10:22:26;;;;;;;0.47;0.47;;;;;;;15.43;78.31;97186.91;5040445;28;20037;-70
2023/05/11 10:24:55;;;;;;;0.75;0.75;;;;;;;15.51;78.74;97179.53;5042412;28;20145;-70
2023/05/11 10:27:23;;;;;;;0.47;0.47;;;;;;;15.60;78.74;97175.44;5039660;28;20047;-70
2023/05/11 10:29:52;;;;;;;0.60;0.60;;;;;;;15.59;77.92;97173.81;5046893;28;20041;-70
2023/05/11 10:32:21;;;;;;;0.50;0.50;;;;;;;15.43;78.36;97173.47;5047693;28;20059;-70
2023/05/11 10:34:50;;;;;;;0.45;0.45;;;;;;;15.54;78.33;97173.69;5042139;28;20454;-70
2023/05/11 10:37:19;;;;;;;0.38;0.38;;;;;;;15.70;77.83;97168.41;5049965;28;20128;-70
2023/05/11 10:39:48;;;;;;;0.32;0.32;;;;;;;15.82;75.64;97156.81;5047221;28;20041;-70
2023/05/11 10:42:29;;;;;;;0.52;0.52;;;;;;;15.95;73.19;97161.91;5046137;28;20037;-70
2023/05/11 10:45:12;;;;;;;0.32;0.32;;;;;;;16.14;72.24;97164.19;5043334;28;20717;-70
2023/05/11 10:48:05;;;;;;;0.45;0.45;;;;;;;16.44;69.85;97155.03;5045344;28;20067;-70
2023/05/11 10:50:42;;;;;;;0.45;0.45;;;;;;;16.76;66.41;97152.63;5047093;28;20059;-70
2023/05/11 10:53:19;;;;;;;0.55;0.55;;;;;;;16.92;66.58;97162.63;5041127;28;20037;-70
2023/05/11 10:56:05;;;;;;;0.65;0.65;;;;;;;17.02;66.58;97159.25;5043606;28;20059;-70
2023/05/11 10:58:45;;;;;;;0.65;0.65;;;;;;;17.20;66.19;97146.31;5049875;28;20053;-70
2023/05/11 11:01:30;;;;;;;0.40;0.40;;;;;;;17.34;65.91;97154.06;5042354;28;20121;-70
2023/05/11 11:04:01;;;;;;;0.43;0.43;;;;;;;17.32;64.99;97151.63;5040948;28;20052;-70
2023/05/11 11:06:29;;;;;;;0.50;0.50;;;;;;;16.98;65.45;97156.22;5044092;28;20050;-70
2023/05/11 11:08:58;;;;;;;0.10;0.10;;;;;;;17.13;66.53;97156.44;5048284;28;20603;-70
2023/05/11 11:11:30;;;;;;;0.47;0.47;;;;;;;17.25;65.59;97154.47;5046203;28;20049;-70
2023/05/11 11:13:58;;;;;;;;;;;;;;;17.67;62.84;97145.09;5033296;28;20401;-70
2023/05/11 11:16:27;;;;;;;0.57;0.57;;;;;;;17.93;62.54;97150.56;5040538;28;19925;-70
2023/05/11 11:19:28;;;;;;;0.60;0.60;;;;;;;17.81;63.35;97149.06;5045849;28;20037;-70
2023/05/11 11:21:56;;;;;;;0.50;0.50;;;;;;;17.64;64.37;97149.13;5039533;28;20045;-70
2023/05/11 11:24:42;;;;;;;0.30;0.30;;;;;;;17.64;64.50;97149.13;5043390;28;20087;-69
2023/05/11 11:27:10;;;;;;;0.47;0.47;;;;;;;17.62;64.34;97153.91;5040724;28;20099;-70
2023/05/11 11:29:39;;;;;;;0.10;0.10;;;;;;;17.55;64.99;97154.06;5044923;28;20468;-70
2023/05/11 11:32:27;;;;;;;0.50;0.50;;;;;;;17.52;64.60;97151.91;5037252;28;20033;-70
2023/05/11 11:34:55;;;;;;;0.52;0.52;;;;;;;17.52;61.67;97154.59;5045030;28;20534;-69
2023/05/11 11:37:23;;;;;;;0.40;0.40;;;;;;;17.38;62.77;97158.72;5036461;28;20088;-70
2023/05/11 11:39:59;;;;;;;0.40;0.40;;;;;;;17.26;63.43;97155.28;5051530;28;20052;-70
2023/05/11 11:42:43;;;;;;;0.40;0.40;;;;;;;17.30;62.61;97158.31;5046491;28;20488;-70
2023/05/11 11:45:31;;;;;;;0.40;0.40;;;;;;;17.46;61.92;97158.28;5052637;28;20048;-69
2023/05/11 11:48:12;;;;;;;0.43;0.43;;;;;;;17.49;61.22;97151.56;5038692;28;20053;-69